createdAt,value
2023-01-17T00:02:04.357Z,2.00
2023-01-17T00:04:50.333Z,2.17
2023-01-17T00:07:38.354Z,1.85
2023-01-17T00:10:08.278Z,3.15
2023-01-17T00:12:35.832Z,4.80
2023-01-17T00:15:03.408Z,1.77
2023-01-17T00:17:30.406Z,3.15
2023-01-17T00:20:15.806Z,1.98
2023-01-17T00:23:02.735Z,2.63
2023-01-17T00:25:52.733Z,3.07
2023-01-17T00:28:19.609Z,3.05
2023-01-17T00:30:46.617Z,2.65
2023-01-17T00:33:13.757Z,3.20
2023-01-17T00:35:40.623Z,3.05
2023-01-17T00:38:10.366Z,2.95
2023-01-17T00:40:39.411Z,2.55
2023-01-17T00:43:26.171Z,3.95
2023-01-17T00:46:12.012Z,4.18
2023-01-17T00:48:58.085Z,2.88
2023-01-17T00:51:44.084Z,4.13
2023-01-17T00:54:30.070Z,2.95
2023-01-17T00:57:16.365Z,1.85
2023-01-17T01:00:01.863Z,2.10
2023-01-17T01:02:47.698Z,3.33
2023-01-17T01:05:33.860Z,4.93
2023-01-17T01:08:20.040Z,2.53
2023-01-17T01:11:06.334Z,6.88
2023-01-17T01:13:52.444Z,2.90
2023-01-17T01:16:38.520Z,4.68
2023-01-17T01:19:24.540Z,3.70
2023-01-17T01:22:09.876Z,4.88
2023-01-17T01:24:55.092Z,2.30
2023-01-17T01:27:40.675Z,2.63
2023-01-17T01:30:26.885Z,4.63
2023-01-17T01:33:12.117Z,2.35
2023-01-17T01:35:38.938Z,2.55
2023-01-17T01:38:05.749Z,3.33
2023-01-17T01:40:32.725Z,3.10
2023-01-17T01:43:00.337Z,4.32
2023-01-17T01:45:29.629Z,2.47
2023-01-17T01:48:17.519Z,2.83
2023-01-17T01:53:11.555Z,3.08
2023-01-17T01:55:42.102Z,4.70
2023-01-17T01:58:16.393Z,3.38
2023-01-17T02:00:43.250Z,3.67
2023-01-17T02:03:31.591Z,3.35
2023-01-17T02:06:10.504Z,2.63
2023-01-17T02:08:37.449Z,2.13
2023-01-17T02:11:04.368Z,2.38
2023-01-17T02:13:31.452Z,2.63
2023-01-17T02:16:14.363Z,2.22
2023-01-17T02:19:09.999Z,3.30
2023-01-17T02:21:54.952Z,1.83
2023-01-17T02:24:42.813Z,2.55
2023-01-17T02:30:26.955Z,1.30
2023-01-17T02:32:58.731Z,1.63
2023-01-17T02:36:04.619Z,1.95
2023-01-17T02:38:51.357Z,1.80
2023-01-17T02:41:43.435Z,2.00
2023-01-17T02:44:15.789Z,2.40
2023-01-17T02:46:54.748Z,2.70
2023-01-17T02:49:26.876Z,2.95
2023-01-17T02:52:08.815Z,1.75
2023-01-17T02:54:48.900Z,2.40
2023-01-17T02:57:35.514Z,1.67
2023-01-17T03:00:14.809Z,1.38
2023-01-17T03:02:50.087Z,1.20
2023-01-17T03:05:21.965Z,2.03
2023-01-17T03:07:50.455Z,2.15
2023-01-17T03:10:19.211Z,1.23
2023-01-17T03:12:46.461Z,1.55
2023-01-17T03:15:17.445Z,0.87
2023-01-17T03:17:50.329Z,1.98
2023-01-17T03:20:17.630Z,1.55
2023-01-17T03:22:44.505Z,1.03
2023-01-17T03:25:11.432Z,2.22
2023-01-17T03:27:38.384Z,0.70
2023-01-17T03:30:06.322Z,0.60
2023-01-17T03:32:33.053Z,1.20
2023-01-17T03:34:59.863Z,1.17
2023-01-17T03:37:26.710Z,1.23
2023-01-17T03:39:53.540Z,0.98
2023-01-17T03:42:20.347Z,0.90
2023-01-17T03:44:47.153Z,1.13
2023-01-17T03:47:13.937Z,0.60
2023-01-17T03:49:41.248Z,0.65
2023-01-17T03:52:08.247Z,0.67
2023-01-17T03:54:35.025Z,0.85
2023-01-17T03:57:01.814Z,1.20
2023-01-17T03:59:28.557Z,1.77
2023-01-17T04:01:55.525Z,0.60
2023-01-17T04:04:25.038Z,1.65
2023-01-17T04:06:52.150Z,0.40
2023-01-17T04:09:18.971Z,0.70
2023-01-17T04:11:47.938Z,0.40
2023-01-17T04:14:14.731Z,0.30
2023-01-17T04:16:41.755Z,0.52
2023-01-17T04:19:14.456Z,0.43
2023-01-17T04:21:41.426Z,0.43
2023-01-17T04:24:08.324Z,0.28
2023-01-17T04:26:35.296Z,0.30
2023-01-17T04:29:02.056Z,0.30
2023-01-17T04:31:28.915Z,0.43
2023-01-17T04:33:55.747Z,0.30
2023-01-17T04:36:22.564Z,0.32
2023-01-17T04:38:49.432Z,0.30
2023-01-17T04:41:16.217Z,0.30
2023-01-17T04:43:43.042Z,0.73
2023-01-17T04:46:10.825Z,0.47
2023-01-17T04:48:40.875Z,0.45
2023-01-17T04:51:07.765Z,0.40
2023-01-17T04:53:34.589Z,0.47
2023-01-17T04:56:01.868Z,0.40
2023-01-17T04:58:29.264Z,0.40
2023-01-17T05:00:56.252Z,0.60
2023-01-17T05:03:23.589Z,0.40
2023-01-17T05:05:50.522Z,0.52
2023-01-17T05:08:18.492Z,0.68
2023-01-17T05:10:47.035Z,0.73
2023-01-17T05:13:14.277Z,0.50
2023-01-17T05:15:41.274Z,0.50
2023-01-17T05:18:12.727Z,0.50
2023-01-17T05:20:39.691Z,0.60
2023-01-17T05:23:06.534Z,0.55
2023-01-17T05:25:33.547Z,0.70
2023-01-17T05:28:00.725Z,0.70
2023-01-17T05:30:29.387Z,1.37
2023-01-17T05:33:01.029Z,0.50
2023-01-17T05:35:32.448Z,0.65
2023-01-17T05:37:59.546Z,0.70
2023-01-17T05:40:28.464Z,0.60
2023-01-17T05:42:57.782Z,1.30
2023-01-17T05:45:27.377Z,0.80
2023-01-17T05:47:55.537Z,0.95
2023-01-17T05:52:56.828Z,0.60
2023-01-17T05:55:25.076Z,1.23
2023-01-17T06:00:19.055Z,0.60
2023-01-17T06:02:46.788Z,0.70
2023-01-17T06:05:14.946Z,1.15
2023-01-17T06:07:46.250Z,1.27
2023-01-17T06:10:23.470Z,0.82
2023-01-17T06:12:50.683Z,0.65
2023-01-17T06:15:18.757Z,0.60
2023-01-17T06:20:12.994Z,1.00
2023-01-17T06:22:39.893Z,1.10
2023-01-17T06:25:07.363Z,1.20
2023-01-17T06:27:34.504Z,1.75
2023-01-17T06:30:01.345Z,1.20
2023-01-17T06:32:28.272Z,1.42
2023-01-17T06:34:55.105Z,1.38
2023-01-17T06:37:21.958Z,1.48
2023-01-17T06:39:49.095Z,1.23
2023-01-17T06:42:16.048Z,1.52
2023-01-17T06:44:42.808Z,1.60
2023-01-17T06:47:09.630Z,1.35
2023-01-17T06:49:36.430Z,1.45
2023-01-17T06:52:03.363Z,2.25
2023-01-17T06:54:30.254Z,1.30
2023-01-17T06:56:57.411Z,1.50
2023-01-17T06:59:24.303Z,2.28
2023-01-17T07:01:51.340Z,1.30
2023-01-17T07:04:18.166Z,1.40
2023-01-17T07:06:45.088Z,1.40
2023-01-17T07:09:12.308Z,1.42
2023-01-17T07:11:39.163Z,2.60
2023-01-17T07:14:05.985Z,1.67
2023-01-17T07:16:34.171Z,2.00
2023-01-17T07:21:27.748Z,3.90
2023-01-17T07:23:54.706Z,2.20
2023-01-17T07:26:21.466Z,1.73
2023-01-17T07:28:48.379Z,2.42
2023-01-17T07:31:15.181Z,2.05
2023-01-17T07:33:41.998Z,2.47
2023-01-17T07:36:09.830Z,2.40
2023-01-17T07:38:36.860Z,1.98
2023-01-17T07:41:03.821Z,2.88
2023-01-17T07:43:30.729Z,2.42
2023-01-17T07:45:57.638Z,1.95
2023-01-17T07:48:25.040Z,1.73
2023-01-17T07:50:56.447Z,1.60
2023-01-17T07:53:28.391Z,1.55
2023-01-17T07:55:55.774Z,2.58
2023-01-17T07:58:22.898Z,2.27
2023-01-17T08:00:49.992Z,1.83
2023-01-17T08:03:18.175Z,2.08
2023-01-17T08:08:19.966Z,2.83
2023-01-17T08:10:47.097Z,2.60
2023-01-17T08:13:13.926Z,3.80
2023-01-17T08:15:40.968Z,1.45
2023-01-17T08:18:07.785Z,1.50
2023-01-17T08:20:35.046Z,2.35
2023-01-17T08:23:02.079Z,2.17
2023-01-17T08:25:29.026Z,1.30
2023-01-17T08:27:58.998Z,1.50
2023-01-17T08:30:26.890Z,2.45
2023-01-17T08:32:54.104Z,1.63
2023-01-17T08:35:21.783Z,2.63
2023-01-17T08:37:53.145Z,1.67
2023-01-17T08:40:20.046Z,1.05
2023-01-17T08:42:57.316Z,2.65
2023-01-17T08:45:24.552Z,1.83
2023-01-17T08:47:52.175Z,2.87
2023-01-17T08:50:20.668Z,0.98
2023-01-17T08:52:53.281Z,1.52
2023-01-17T08:55:20.214Z,3.25
2023-01-17T08:57:47.048Z,1.20
2023-01-17T09:00:14.302Z,2.15
2023-01-17T09:02:41.263Z,1.77
2023-01-17T09:05:08.492Z,1.27
2023-01-17T09:07:35.459Z,2.28
2023-01-17T09:10:02.352Z,0.88
2023-01-17T09:12:33.265Z,1.10
2023-01-17T09:15:00.731Z,1.13
2023-01-17T09:17:27.629Z,0.40
2023-01-17T09:19:54.514Z,0.85
2023-01-17T09:22:21.443Z,0.68
2023-01-17T09:24:48.480Z,1.65
2023-01-17T09:27:15.324Z,0.93
2023-01-17T09:29:42.216Z,0.40
2023-01-17T09:32:09.147Z,1.63
2023-01-17T09:34:35.990Z,0.85
2023-01-17T09:37:02.912Z,0.20
2023-01-17T09:39:29.742Z,1.75
2023-01-17T09:42:09.545Z,0.63
2023-01-17T09:44:51.600Z,0.70
2023-01-17T09:47:36.480Z,0.63
2023-01-17T09:50:23.572Z,0.40
2023-01-17T09:52:50.577Z,2.93
2023-01-17T09:55:17.979Z,0.57
2023-01-17T09:58:21.697Z,0.63
2023-01-17T10:01:06.642Z,0.50
2023-01-17T10:04:16.068Z,0.90
2023-01-17T10:06:50.406Z,0.30
2023-01-17T10:09:46.437Z,0.57
2023-01-17T10:12:25.458Z,1.20
2023-01-17T10:15:09.428Z,0.20
2023-01-17T10:18:05.769Z,0.55
2023-01-17T10:20:50.803Z,0.50
2023-01-17T10:23:53.927Z,0.47
2023-01-17T10:26:25.993Z,0.45
2023-01-17T10:28:59.488Z,0.85
2023-01-17T10:31:40.293Z,0.60
2023-01-17T10:34:25.383Z,1.25
2023-01-17T10:37:01.879Z,0.28
2023-01-17T10:39:30.846Z,1.80
2023-01-17T10:42:02.928Z,1.92
2023-01-17T10:44:39.422Z,1.75
2023-01-17T10:47:12.614Z,0.20
2023-01-17T10:49:46.676Z,1.10
2023-01-17T10:52:16.648Z,0.73
2023-01-17T10:55:08.681Z,0.77
2023-01-17T10:57:40.543Z,0.40
2023-01-17T11:00:27.446Z,0.45
2023-01-17T11:02:54.538Z,0.68
2023-01-17T11:05:30.144Z,0.30
2023-01-17T11:07:59.753Z,2.95
2023-01-17T11:10:44.916Z,1.70
2023-01-17T11:13:20.774Z,0.70
2023-01-17T11:16:11.806Z,1.63
2023-01-17T11:18:39.864Z,1.55
2023-01-17T11:21:20.691Z,1.23
2023-01-17T11:23:54.935Z,1.30
2023-01-17T11:26:30.517Z,0.82
2023-01-17T11:29:23.250Z,2.05
2023-01-17T11:31:50.087Z,1.45
2023-01-17T11:34:32.042Z,2.22
2023-01-17T11:37:22.686Z,0.90
2023-01-17T11:39:49.749Z,3.53
2023-01-17T11:42:37.672Z,2.28
2023-01-17T11:45:24.698Z,1.77
2023-01-17T11:48:11.509Z,0.70
2023-01-17T11:50:51.939Z,0.95
2023-01-17T11:53:30.075Z,0.93
2023-01-17T11:56:05.995Z,1.33
2023-01-17T11:58:35.840Z,2.00
2023-01-17T12:01:31.640Z,0.55
2023-01-17T12:04:36.814Z,0.63
2023-01-17T12:07:28.736Z,1.02
2023-01-17T12:10:19.666Z,2.67
2023-01-17T12:13:22.822Z,1.85
2023-01-17T12:16:31.479Z,2.10
2023-01-17T12:19:17.129Z,0.75
2023-01-17T12:22:02.661Z,1.48
2023-01-17T12:24:49.022Z,1.20
2023-01-17T12:27:42.708Z,1.95
2023-01-17T12:30:31.858Z,3.13
2023-01-17T12:33:19.820Z,0.73
2023-01-17T12:36:23.608Z,2.05
2023-01-17T12:38:50.476Z,1.90
2023-01-17T12:41:26.486Z,3.13
2023-01-17T12:43:59.607Z,3.17
2023-01-17T12:46:40.640Z,2.70
2023-01-17T12:49:44.012Z,1.45
2023-01-17T12:52:19.893Z,2.60
2023-01-17T12:54:52.750Z,3.53
2023-01-17T12:57:24.687Z,3.10
2023-01-17T13:00:17.930Z,3.80
2023-01-17T13:03:03.704Z,2.08
2023-01-17T13:05:38.552Z,3.78
2023-01-17T13:08:26.748Z,2.35
2023-01-17T13:11:02.480Z,3.15
2023-01-17T13:13:30.576Z,2.28
2023-01-17T13:16:07.749Z,4.32
2023-01-17T13:18:37.018Z,3.20
2023-01-17T13:21:15.557Z,1.90
2023-01-17T13:23:45.365Z,3.13
2023-01-17T13:26:44.210Z,5.30
2023-01-17T13:29:29.565Z,2.92
2023-01-17T13:32:19.614Z,3.97
2023-01-17T13:35:07.383Z,3.50
2023-01-17T13:37:53.854Z,2.88
2023-01-17T13:40:29.362Z,7.65
2023-01-17T13:43:06.075Z,4.68
2023-01-17T13:45:35.772Z,4.00
2023-01-17T13:48:21.121Z,2.13
2023-01-17T13:51:03.843Z,3.85
2023-01-17T13:53:39.483Z,3.35
2023-01-17T13:56:28.523Z,5.47
2023-01-17T13:59:02.780Z,3.75
2023-01-17T14:01:34.684Z,1.70
2023-01-17T14:04:04.873Z,1.95
2023-01-17T14:06:44.204Z,2.83
2023-01-17T14:09:16.495Z,2.22
2023-01-17T14:12:04.457Z,3.22
2023-01-17T14:17:25.490Z,2.38
2023-01-17T14:19:52.361Z,5.63
2023-01-17T14:22:19.193Z,2.70
2023-01-17T14:25:14.898Z,4.30
2023-01-17T14:27:51.057Z,3.78
2023-01-17T14:30:29.532Z,2.75
2023-01-17T14:32:59.167Z,2.67
2023-01-17T14:35:37.488Z,3.15
2023-01-17T14:38:25.179Z,4.60
2023-01-17T14:40:57.650Z,2.25
2023-01-17T14:43:28.059Z,1.23
2023-01-17T14:46:28.480Z,1.08
2023-01-17T14:49:07.516Z,2.95
2023-01-17T14:51:35.924Z,2.53
2023-01-17T14:54:06.232Z,2.63
2023-01-17T14:56:33.766Z,4.90
2023-01-17T14:59:21.030Z,5.07
2023-01-17T15:02:06.563Z,2.70
2023-01-17T15:04:39.076Z,3.85
2023-01-17T15:07:06.821Z,5.28
2023-01-17T15:09:37.465Z,3.90
2023-01-17T15:12:08.149Z,4.25
2023-01-17T15:14:39.531Z,4.07
2023-01-17T15:17:16.113Z,2.88
2023-01-17T15:19:45.195Z,5.68
2023-01-17T15:22:12.626Z,4.00
2023-01-17T15:24:44.581Z,4.00
2023-01-17T15:27:16.830Z,3.25
2023-01-17T15:29:45.540Z,4.15
2023-01-17T15:32:22.442Z,4.00
2023-01-17T15:34:50.998Z,4.70
2023-01-17T15:37:34.538Z,4.28
2023-01-17T15:40:20.391Z,4.97
2023-01-17T15:42:51.432Z,3.10
2023-01-17T15:45:27.871Z,3.17
2023-01-17T15:47:59.113Z,4.75
2023-01-17T15:50:36.389Z,2.80
2023-01-17T15:53:12.017Z,7.35
2023-01-17T15:55:40.392Z,6.28
2023-01-17T15:58:27.170Z,6.30
2023-01-17T16:00:54.200Z,1.50
2023-01-17T16:03:29.137Z,3.63
2023-01-17T16:06:00.115Z,2.30
2023-01-17T16:08:33.401Z,2.10
2023-01-17T16:11:06.283Z,3.42
2023-01-17T16:13:39.006Z,3.55
2023-01-17T16:16:16.206Z,4.18
2023-01-17T16:18:43.694Z,3.10
2023-01-17T16:21:23.595Z,6.60
2023-01-17T16:23:51.189Z,4.43
2023-01-17T16:26:18.768Z,4.32
2023-01-17T16:28:45.857Z,3.55
2023-01-17T16:31:12.755Z,1.88
2023-01-17T16:33:42.018Z,3.65
2023-01-17T16:36:14.870Z,2.03
2023-01-17T16:38:45.507Z,3.00
2023-01-17T16:41:12.641Z,2.08
2023-01-17T16:43:39.443Z,3.43
2023-01-17T16:46:06.893Z,2.92
2023-01-17T16:48:33.718Z,7.55
2023-01-17T16:51:08.628Z,4.55
2023-01-17T16:53:36.653Z,6.60
2023-01-17T16:56:12.037Z,3.30
2023-01-17T16:58:39.260Z,5.93
2023-01-17T17:01:17.218Z,9.67
2023-01-17T17:03:44.634Z,7.53
2023-01-17T17:06:11.782Z,6.07
2023-01-17T17:08:39.682Z,4.40
2023-01-17T17:11:13.168Z,2.78
2023-01-17T17:13:41.555Z,4.75
2023-01-17T17:16:16.402Z,3.15
2023-01-17T17:18:44.329Z,1.77
2023-01-17T17:21:11.348Z,3.05
2023-01-17T17:23:38.217Z,4.93
2023-01-17T17:26:05.196Z,4.07
2023-01-17T17:28:32.010Z,6.07
2023-01-17T17:31:04.651Z,4.15
2023-01-17T17:33:31.828Z,3.17
2023-01-17T17:36:06.609Z,4.80
2023-01-17T17:38:36.483Z,3.22
2023-01-17T17:41:09.743Z,4.53
2023-01-17T17:43:42.803Z,7.03
2023-01-17T17:46:09.926Z,11.52
2023-01-17T17:48:39.636Z,8.07
2023-01-17T17:51:07.138Z,8.75
2023-01-17T17:53:34.504Z,3.78
2023-01-17T17:56:06.499Z,5.18
2023-01-17T17:58:35.045Z,6.72
2023-01-17T18:01:03.106Z,6.38
2023-01-17T18:03:30.997Z,8.13
2023-01-17T18:06:02.466Z,5.30
2023-01-17T18:08:32.438Z,5.63
2023-01-17T18:11:04.087Z,8.57
2023-01-17T18:13:32.459Z,5.90
2023-01-17T18:16:05.629Z,5.80
2023-01-17T18:18:37.602Z,4.95
2023-01-17T18:21:12.218Z,4.40
2023-01-17T18:23:41.795Z,4.30
2023-01-17T18:26:17.112Z,7.45
2023-01-17T18:28:44.198Z,11.18
2023-01-17T18:31:11.156Z,5.97
2023-01-17T18:33:39.562Z,5.53
2023-01-17T18:36:08.983Z,6.82
2023-01-17T18:38:40.828Z,4.35
2023-01-17T18:41:09.963Z,5.03
2023-01-17T18:43:36.911Z,5.30
2023-01-17T18:46:04.782Z,5.25
2023-01-17T18:48:31.745Z,6.85
2023-01-17T18:51:07.431Z,21.00
2023-01-17T18:53:36.091Z,8.82
2023-01-17T18:56:05.355Z,7.47
2023-01-17T18:58:36.766Z,6.32
2023-01-17T19:01:28.705Z,6.70
2023-01-17T19:03:57.920Z,8.43
2023-01-17T19:06:31.672Z,10.10
2023-01-17T19:08:59.326Z,7.20
2023-01-17T19:11:27.569Z,14.07
2023-01-17T19:13:55.015Z,8.50
2023-01-17T19:16:24.722Z,6.97
2023-01-17T19:18:52.394Z,8.52
2023-01-17T19:21:21.740Z,8.85
2023-01-17T19:23:49.183Z,7.00
2023-01-17T19:26:27.203Z,6.90
2023-01-17T19:28:56.394Z,6.80
2023-01-17T19:31:26.524Z,6.63
2023-01-17T19:33:57.315Z,6.72
2023-01-17T19:36:29.510Z,5.97
2023-01-17T19:39:04.506Z,4.30
2023-01-17T19:41:34.798Z,5.45
2023-01-17T19:44:04.536Z,5.10
2023-01-17T19:46:32.441Z,6.13
2023-01-17T19:51:27.550Z,7.18
2023-01-17T19:53:54.978Z,7.03
2023-01-17T19:56:24.622Z,10.23
2023-01-17T19:58:52.380Z,12.45
2023-01-17T20:01:28.682Z,8.40
2023-01-17T20:03:58.096Z,14.32
2023-01-17T20:06:28.826Z,9.35
2023-01-17T20:08:56.232Z,10.82
2023-01-17T20:11:24.816Z,8.60
2023-01-17T20:13:54.473Z,9.15
2023-01-17T20:16:22.656Z,8.15
2023-01-17T20:18:49.704Z,7.63
2023-01-17T20:21:21.979Z,7.75
2023-01-17T20:23:50.205Z,7.20
2023-01-17T20:26:19.807Z,11.50
2023-01-17T20:28:48.871Z,6.95
2023-01-17T20:31:21.600Z,6.00
2023-01-17T20:33:52.624Z,8.07
2023-01-17T20:36:21.573Z,8.15
2023-01-17T20:38:49.013Z,7.82
2023-01-17T20:41:18.548Z,7.22
2023-01-17T20:43:48.146Z,10.23
2023-01-17T20:46:15.810Z,10.70
2023-01-17T20:48:56.302Z,9.68
2023-01-17T20:51:25.409Z,8.85
2023-01-17T20:54:01.261Z,8.95
2023-01-17T20:56:30.396Z,10.32
2023-01-17T20:58:57.886Z,10.48
2023-01-17T21:01:24.890Z,9.88
2023-01-17T21:03:53.892Z,28.30
2023-01-17T21:06:22.864Z,10.95
2023-01-17T21:08:50.654Z,18.38
2023-01-17T21:11:20.814Z,11.77
2023-01-17T21:13:48.746Z,15.20
2023-01-17T21:18:47.615Z,12.88
2023-01-17T21:21:17.656Z,16.15
2023-01-17T21:23:45.691Z,14.50
2023-01-17T21:28:43.100Z,10.35
2023-01-17T21:31:23.273Z,8.95
2023-01-17T21:34:08.399Z,12.38
2023-01-17T21:36:39.965Z,9.95
2023-01-17T21:39:11.281Z,9.35
2023-01-17T21:41:40.187Z,6.95
2023-01-17T21:44:21.824Z,9.55
2023-01-17T21:46:53.591Z,8.38
2023-01-17T21:49:23.435Z,9.75
2023-01-17T21:51:53.149Z,10.35
2023-01-17T21:54:44.715Z,14.93
2023-01-17T21:57:31.688Z,10.00
2023-01-17T21:59:58.625Z,9.38
2023-01-17T22:02:25.822Z,9.43
2023-01-17T22:04:54.510Z,8.32
2023-01-17T22:07:21.318Z,8.23
2023-01-17T22:09:48.249Z,8.98
2023-01-17T22:12:15.067Z,8.43
2023-01-17T22:14:41.960Z,6.13
2023-01-17T22:17:08.778Z,9.80
2023-01-17T22:19:35.692Z,12.00
2023-01-17T22:22:03.444Z,5.95
2023-01-17T22:24:30.361Z,6.70
2023-01-17T22:26:57.175Z,8.38
2023-01-17T22:29:24.070Z,8.85
2023-01-17T22:31:50.867Z,9.05
2023-01-17T22:34:18.893Z,8.93
2023-01-17T22:36:45.937Z,9.77
2023-01-17T22:39:13.041Z,7.60
2023-01-17T22:41:40.086Z,7.13
2023-01-17T22:44:07.659Z,7.32
2023-01-17T22:46:37.250Z,12.38
2023-01-17T22:49:05.841Z,8.90
2023-01-17T22:51:32.880Z,8.07
2023-01-17T22:54:00.834Z,8.50
2023-01-17T22:59:00.819Z,5.63
2023-01-17T23:01:32.797Z,7.25
2023-01-17T23:04:02.061Z,6.30
2023-01-17T23:06:31.260Z,7.18
2023-01-17T23:09:00.671Z,6.90
2023-01-17T23:11:38.949Z,7.00
2023-01-17T23:14:17.505Z,6.55
2023-01-17T23:17:08.334Z,9.07
2023-01-17T23:19:40.707Z,8.20
2023-01-17T23:22:16.177Z,7.60
2023-01-17T23:25:02.616Z,6.40
2023-01-17T23:27:55.570Z,6.90
2023-01-17T23:30:40.192Z,7.47
2023-01-17T23:33:13.070Z,7.05
2023-01-17T23:35:42.592Z,5.50
2023-01-17T23:38:25.732Z,6.65
2023-01-17T23:41:12.197Z,8.63
2023-01-17T23:43:39.050Z,9.90
2023-01-17T23:46:10.537Z,7.00
2023-01-17T23:48:37.631Z,5.60
2023-01-17T23:51:18.423Z,7.93
2023-01-17T23:53:45.292Z,7.68
2023-01-17T23:56:23.561Z,10.93
2023-01-17T23:58:50.765Z,12.50
